createdAt,value
2023-03-20T00:00:00.976Z,8.34
2023-03-20T00:00:37.359Z,8.35
2023-03-20T00:01:16.297Z,8.34
2023-03-20T00:01:49.285Z,8.29
2023-03-20T00:02:23.262Z,8.34
2023-03-20T00:02:55.102Z,8.34
2023-03-20T00:03:26.618Z,8.33
2023-03-20T00:03:58.098Z,8.34
2023-03-20T00:04:29.686Z,8.31
2023-03-20T00:05:01.494Z,8.31
2023-03-20T00:05:33.353Z,8.32
2023-03-20T00:06:05.586Z,8.31
2023-03-20T00:06:37.052Z,8.32
2023-03-20T00:07:12.447Z,8.31
2023-03-20T00:07:43.820Z,8.30
2023-03-20T00:08:15.612Z,8.28
2023-03-20T00:08:49.523Z,8.29
2023-03-20T00:09:21.295Z,8.29
2023-03-20T00:09:52.760Z,8.25
2023-03-20T00:10:33.091Z,8.28
2023-03-20T00:11:04.684Z,8.25
2023-03-20T00:11:44.232Z,8.28
2023-03-20T00:12:26.217Z,8.26
2023-03-20T00:12:57.675Z,8.27
2023-03-20T00:13:29.446Z,8.25
2023-03-20T00:14:03.620Z,8.27
2023-03-20T00:14:35.371Z,8.26
2023-03-20T00:15:17.602Z,8.27
2023-03-20T00:15:49.152Z,8.26
2023-03-20T00:16:23.112Z,8.24
2023-03-20T00:16:54.600Z,8.25
2023-03-20T00:17:25.989Z,8.25
2023-03-20T00:17:58.506Z,8.26
2023-03-20T00:18:30.060Z,8.23
2023-03-20T00:19:01.966Z,8.26
2023-03-20T00:19:33.432Z,8.23
2023-03-20T00:20:05.069Z,8.25
2023-03-20T00:20:36.644Z,8.27
2023-03-20T00:21:17.819Z,8.22
2023-03-20T00:21:51.185Z,8.25
2023-03-20T00:22:22.810Z,8.26
2023-03-20T00:22:54.529Z,8.24
2023-03-20T00:23:27.226Z,8.23
2023-03-20T00:23:58.901Z,8.26
2023-03-20T00:24:30.468Z,8.25
2023-03-20T00:25:01.966Z,8.22
2023-03-20T00:25:34.382Z,8.22
2023-03-20T00:26:06.459Z,8.22
2023-03-20T00:26:39.396Z,8.22
2023-03-20T00:27:15.154Z,8.22
2023-03-20T00:27:46.940Z,8.23
2023-03-20T00:28:37.461Z,8.23
2023-03-20T00:29:18.185Z,8.22
2023-03-20T00:29:49.718Z,8.22
2023-03-20T00:30:29.217Z,8.24
2023-03-20T00:31:00.645Z,8.21
2023-03-20T00:31:37.040Z,8.22
2023-03-20T00:32:12.908Z,8.23
2023-03-20T00:32:44.443Z,8.21
2023-03-20T00:33:16.976Z,8.21
2023-03-20T00:33:48.385Z,8.22
2023-03-20T00:34:23.507Z,8.22
2023-03-20T00:34:55.057Z,8.22
2023-03-20T00:35:29.393Z,8.19
2023-03-20T00:36:01.548Z,8.21
2023-03-20T00:36:33.384Z,8.22
2023-03-20T00:37:05.373Z,8.19
2023-03-20T00:37:36.789Z,8.21
2023-03-20T00:38:09.005Z,8.21
2023-03-20T00:38:40.528Z,8.19
2023-03-20T00:39:12.034Z,8.20
2023-03-20T00:39:43.435Z,8.19
2023-03-20T00:40:15.091Z,8.19
2023-03-20T00:40:46.476Z,8.19
2023-03-20T00:41:27.185Z,8.17
2023-03-20T00:42:05.930Z,8.18
2023-03-20T00:42:37.618Z,8.16
2023-03-20T00:43:12.716Z,8.16
2023-03-20T00:43:44.231Z,8.20
2023-03-20T00:44:24.366Z,8.20
2023-03-20T00:44:59.493Z,8.20
2023-03-20T00:45:34.090Z,8.20
2023-03-20T00:46:12.233Z,8.20
2023-03-20T00:46:46.497Z,8.20
2023-03-20T00:47:21.314Z,8.20
2023-03-20T00:47:53.367Z,8.20
2023-03-20T00:48:24.833Z,8.20
2023-03-20T00:48:56.818Z,8.18
2023-03-20T00:49:32.455Z,8.20
2023-03-20T00:50:15.374Z,8.17
2023-03-20T00:50:46.865Z,8.18
2023-03-20T00:51:19.552Z,8.19
2023-03-20T00:51:51.145Z,8.13
2023-03-20T00:52:23.366Z,8.15
2023-03-20T00:52:55.036Z,8.11
2023-03-20T00:53:26.419Z,8.12
2023-03-20T00:53:58.338Z,8.14
2023-03-20T00:54:29.742Z,8.14
2023-03-20T00:55:01.245Z,8.13
2023-03-20T00:55:33.028Z,8.14
2023-03-20T00:56:05.666Z,8.11
2023-03-20T00:56:42.529Z,8.15
2023-03-20T00:57:29.367Z,8.14
2023-03-20T00:58:02.699Z,8.15
2023-03-20T00:58:34.371Z,8.13
2023-03-20T00:59:06.201Z,8.13
2023-03-20T00:59:41.901Z,8.13
2023-03-20T01:00:20.134Z,8.13
2023-03-20T01:00:51.953Z,8.11
2023-03-20T01:01:23.896Z,8.09
2023-03-20T01:01:56.472Z,8.10
2023-03-20T01:02:29.442Z,8.13
2023-03-20T01:03:03.939Z,8.12
2023-03-20T01:03:35.426Z,8.12
2023-03-20T01:04:12.819Z,8.13
2023-03-20T01:04:44.307Z,8.13
2023-03-20T01:05:16.119Z,8.10
2023-03-20T01:05:48.387Z,8.11
2023-03-20T01:06:19.853Z,8.10
2023-03-20T01:06:52.616Z,8.09
2023-03-20T01:07:24.674Z,8.13
2023-03-20T01:07:56.598Z,8.13
2023-03-20T01:08:28.069Z,8.11
2023-03-20T01:09:00.075Z,8.14
2023-03-20T01:09:31.805Z,8.14
2023-03-20T01:10:04.373Z,8.10
2023-03-20T01:10:36.052Z,8.13
2023-03-20T01:11:11.362Z,8.11
2023-03-20T01:11:45.753Z,8.12
2023-03-20T01:12:17.506Z,8.14
2023-03-20T01:12:49.153Z,8.14
2023-03-20T01:13:30.273Z,8.12
2023-03-20T01:14:02.234Z,8.14
2023-03-20T01:14:34.110Z,8.13
2023-03-20T01:15:16.355Z,8.14
2023-03-20T01:15:49.335Z,8.15
2023-03-20T01:16:24.192Z,8.15
2023-03-20T01:16:55.974Z,8.14
2023-03-20T01:17:29.453Z,8.14
2023-03-20T01:18:00.932Z,8.14
2023-03-20T01:18:32.550Z,8.11
2023-03-20T01:19:04.009Z,8.11
2023-03-20T01:19:36.505Z,8.13
2023-03-20T01:20:21.035Z,8.13
2023-03-20T01:20:53.240Z,8.15
2023-03-20T01:21:25.772Z,8.13
2023-03-20T01:21:57.162Z,8.14
2023-03-20T01:22:28.570Z,8.11
2023-03-20T01:22:59.992Z,8.13
2023-03-20T01:23:31.386Z,8.13
2023-03-20T01:24:02.932Z,8.11
2023-03-20T01:24:34.312Z,8.12
2023-03-20T01:25:06.171Z,8.14
2023-03-20T01:25:38.340Z,8.14
2023-03-20T01:26:43.247Z,8.16
2023-03-20T01:27:18.862Z,8.13
2023-03-20T01:27:52.789Z,8.15
2023-03-20T01:28:24.566Z,8.12
2023-03-20T01:28:55.974Z,8.11
2023-03-20T01:29:27.650Z,8.12
2023-03-20T01:29:59.132Z,8.12
2023-03-20T01:30:32.314Z,8.08
2023-03-20T01:31:03.813Z,8.13
2023-03-20T01:31:35.643Z,8.11
2023-03-20T01:32:16.201Z,8.11
2023-03-20T01:32:48.517Z,8.13
2023-03-20T01:33:22.704Z,8.12
2023-03-20T01:33:54.352Z,8.13
2023-03-20T01:34:25.725Z,8.11
2023-03-20T01:34:57.222Z,8.12
2023-03-20T01:35:29.304Z,8.11
2023-03-20T01:36:01.605Z,8.09
2023-03-20T01:36:33.230Z,8.11
2023-03-20T01:37:12.731Z,8.12
2023-03-20T01:37:45.877Z,8.10
2023-03-20T01:38:24.734Z,8.11
2023-03-20T01:38:58.987Z,8.10
2023-03-20T01:39:35.917Z,8.12
2023-03-20T01:40:39.524Z,8.11
2023-03-20T01:41:17.977Z,8.10
2023-03-20T01:41:50.871Z,8.10
2023-03-20T01:42:22.493Z,8.09
2023-03-20T01:42:53.993Z,8.06
2023-03-20T01:43:26.155Z,8.09
2023-03-20T01:43:57.836Z,8.07
2023-03-20T01:44:32.373Z,8.08
2023-03-20T01:45:16.441Z,8.07
2023-03-20T01:46:14.114Z,8.08
2023-03-20T01:46:46.093Z,8.06
2023-03-20T01:47:21.142Z,8.08
2023-03-20T01:47:52.810Z,8.06
2023-03-20T01:48:27.580Z,8.07
2023-03-20T01:49:09.152Z,8.04
2023-03-20T01:50:34.742Z,8.06
2023-03-20T01:51:06.468Z,8.05
2023-03-20T01:51:37.865Z,8.05
2023-03-20T01:52:09.275Z,8.04
2023-03-20T01:52:40.732Z,8.03
2023-03-20T01:53:16.805Z,8.04
2023-03-20T01:53:58.636Z,8.02
2023-03-20T01:54:34.215Z,8.03
2023-03-20T01:55:06.100Z,8.02
2023-03-20T01:55:40.534Z,8.03
2023-03-20T01:56:14.034Z,8.02
2023-03-20T01:56:47.272Z,7.98
2023-03-20T01:57:22.929Z,7.96
2023-03-20T01:57:57.393Z,7.99
2023-03-20T01:58:37.262Z,7.98
2023-03-20T01:59:22.281Z,7.99
2023-03-20T02:00:02.563Z,7.98
2023-03-20T02:00:36.587Z,8.00
2023-03-20T02:01:11.945Z,7.98
2023-03-20T02:01:44.766Z,7.96
2023-03-20T02:02:22.120Z,7.99
2023-03-20T02:02:54.777Z,7.96
2023-03-20T02:03:26.744Z,7.97
2023-03-20T02:03:58.365Z,7.96
2023-03-20T02:04:34.538Z,7.95
2023-03-20T02:05:11.343Z,7.96
2023-03-20T02:05:44.557Z,7.93
2023-03-20T02:06:16.308Z,7.94
2023-03-20T02:06:47.868Z,7.94
2023-03-20T02:07:22.800Z,7.91
2023-03-20T02:08:27.016Z,7.95
2023-03-20T02:08:58.563Z,7.95
2023-03-20T02:09:29.978Z,7.92
2023-03-20T02:10:03.962Z,7.92
2023-03-20T02:10:35.689Z,7.89
2023-03-20T02:11:07.472Z,7.90
2023-03-20T02:11:41.910Z,7.91
2023-03-20T02:12:13.628Z,7.92
2023-03-20T02:12:47.311Z,7.90
2023-03-20T02:13:19.467Z,7.90
2023-03-20T02:13:54.303Z,7.89
2023-03-20T02:14:26.686Z,7.88
2023-03-20T02:14:58.653Z,7.89
2023-03-20T02:15:31.713Z,7.91
2023-03-20T02:16:05.641Z,7.91
2023-03-20T02:16:37.092Z,7.90
2023-03-20T02:17:10.181Z,7.89
2023-03-20T02:17:42.671Z,7.91
2023-03-20T02:18:14.226Z,7.89
2023-03-20T02:18:49.377Z,7.89
2023-03-20T02:19:30.660Z,7.86
2023-03-20T02:20:06.032Z,7.88
2023-03-20T02:21:07.041Z,7.86
2023-03-20T02:22:11.026Z,7.85
2023-03-20T02:22:45.203Z,7.86
2023-03-20T02:23:51.805Z,7.83
2023-03-20T02:24:41.924Z,7.84
2023-03-20T02:25:42.407Z,7.84
2023-03-20T02:26:36.666Z,7.83
2023-03-20T02:27:23.064Z,7.82
2023-03-20T02:28:32.060Z,7.82
2023-03-20T02:29:35.711Z,7.82
2023-03-20T02:30:44.508Z,7.82
2023-03-20T02:31:40.482Z,7.80
2023-03-20T02:32:23.826Z,7.80
2023-03-20T02:33:32.830Z,7.79
2023-03-20T02:34:35.698Z,7.78
2023-03-20T02:35:12.930Z,7.77
2023-03-20T02:36:25.985Z,7.76
2023-03-20T02:37:00.678Z,7.75
2023-03-20T02:37:45.844Z,7.74
2023-03-20T02:38:30.191Z,7.72
2023-03-20T02:39:11.237Z,7.73
2023-03-20T02:40:08.822Z,7.71
2023-03-20T02:41:05.622Z,7.71
2023-03-20T02:41:54.459Z,7.68
2023-03-20T02:42:44.712Z,7.69
2023-03-20T02:43:18.863Z,7.68
2023-03-20T02:44:02.675Z,7.67
2023-03-20T02:44:51.794Z,7.69
2023-03-20T02:45:53.705Z,7.68
2023-03-20T02:46:37.137Z,7.64
2023-03-20T02:47:21.449Z,7.63
2023-03-20T02:48:08.440Z,7.63
2023-03-20T02:48:52.060Z,7.63
2023-03-20T02:49:32.445Z,7.64
2023-03-20T02:51:43.630Z,7.63
2023-03-20T02:52:22.443Z,7.62
2023-03-20T02:53:16.167Z,7.60
2023-03-20T02:54:12.746Z,7.59
2023-03-20T02:55:02.806Z,7.60
2023-03-20T02:55:47.969Z,7.60
2023-03-20T02:56:34.104Z,7.59
2023-03-20T02:57:18.118Z,7.57
2023-03-20T02:58:04.642Z,7.60
2023-03-20T02:58:45.462Z,7.57
2023-03-20T02:59:25.944Z,7.59
2023-03-20T03:00:10.746Z,7.57
2023-03-20T03:00:58.487Z,7.57
2023-03-20T03:01:47.372Z,7.57
2023-03-20T03:02:26.204Z,7.56
2023-03-20T03:03:11.885Z,7.56
2023-03-20T03:03:49.052Z,7.54
2023-03-20T03:04:26.278Z,7.50
2023-03-20T03:05:02.878Z,7.52
2023-03-20T03:05:49.591Z,7.51
2023-03-20T03:06:26.657Z,7.50
2023-03-20T03:06:59.558Z,7.48
2023-03-20T03:07:33.840Z,7.52
2023-03-20T03:08:08.529Z,7.50
2023-03-20T03:08:45.102Z,7.48
2023-03-20T03:09:22.847Z,7.47
2023-03-20T03:10:01.475Z,7.48
2023-03-20T03:10:40.554Z,7.50
2023-03-20T03:11:12.944Z,7.46
2023-03-20T03:11:56.918Z,7.50
2023-03-20T03:12:33.103Z,7.50
2023-03-20T03:13:11.497Z,7.46
2023-03-20T03:13:48.415Z,7.48
2023-03-20T03:14:44.812Z,7.48
2023-03-20T03:15:29.282Z,7.46
2023-03-20T03:16:08.838Z,7.46
2023-03-20T03:16:41.144Z,7.46
2023-03-20T03:17:15.291Z,7.45
2023-03-20T03:17:49.364Z,7.46
2023-03-20T03:18:24.900Z,7.45
2023-03-20T03:19:05.369Z,7.44
2023-03-20T03:19:39.822Z,7.44
2023-03-20T03:20:32.447Z,7.45
2023-03-20T03:21:07.339Z,7.44
2023-03-20T03:21:40.477Z,7.41
2023-03-20T03:22:12.477Z,7.39
2023-03-20T03:22:44.360Z,7.40
2023-03-20T03:23:34.706Z,7.41
2023-03-20T03:24:06.594Z,7.40
2023-03-20T03:24:43.966Z,7.41
2023-03-20T03:25:15.425Z,7.39
2023-03-20T03:25:47.303Z,7.40
2023-03-20T03:26:27.726Z,7.44
2023-03-20T03:27:03.670Z,7.41
2023-03-20T03:27:42.870Z,7.42
2023-03-20T03:28:36.893Z,7.43
2023-03-20T03:29:15.792Z,7.40
2023-03-20T03:30:00.535Z,7.40
2023-03-20T03:30:36.259Z,7.39
2023-03-20T03:31:15.304Z,7.40
2023-03-20T03:31:47.279Z,7.39
2023-03-20T03:32:47.300Z,7.38
2023-03-20T03:33:28.405Z,7.37
2023-03-20T03:34:01.503Z,7.37
2023-03-20T03:34:35.114Z,7.36
2023-03-20T03:35:07.524Z,7.37
2023-03-20T03:35:40.960Z,7.37
2023-03-20T03:36:45.021Z,7.36
2023-03-20T03:37:31.039Z,7.33
2023-03-20T03:38:21.550Z,7.32
2023-03-20T03:39:20.362Z,7.33
2023-03-20T03:40:18.060Z,7.32
2023-03-20T03:41:05.262Z,7.30
2023-03-20T03:42:21.193Z,7.30
2023-03-20T03:43:17.879Z,7.27
2023-03-20T03:44:07.861Z,7.25
2023-03-20T03:44:55.651Z,7.24
2023-03-20T03:45:39.286Z,7.23
2023-03-20T03:46:33.909Z,7.23
2023-03-20T03:47:19.854Z,7.21
2023-03-20T03:48:01.184Z,7.17
2023-03-20T03:48:38.795Z,7.17
2023-03-20T03:49:16.016Z,7.15
2023-03-20T03:49:54.574Z,7.16
2023-03-20T03:50:33.747Z,7.16
2023-03-20T03:51:13.863Z,7.13
2023-03-20T03:51:50.917Z,7.14
2023-03-20T03:52:24.689Z,7.14
2023-03-20T03:52:59.714Z,7.11
2023-03-20T03:53:36.442Z,7.12
2023-03-20T03:54:16.390Z,7.09
2023-03-20T03:54:57.219Z,7.09
2023-03-20T03:55:36.393Z,7.10
2023-03-20T03:56:12.665Z,7.07
2023-03-20T03:56:48.890Z,7.07
2023-03-20T03:57:25.643Z,7.05
2023-03-20T03:58:01.808Z,7.08
2023-03-20T03:58:40.416Z,7.04
2023-03-20T03:59:20.957Z,7.05
2023-03-20T03:59:53.532Z,7.02
2023-03-20T04:00:27.519Z,7.04
2023-03-20T04:01:02.528Z,7.03
2023-03-20T04:01:35.809Z,6.99
2023-03-20T04:02:09.184Z,7.01
2023-03-20T04:02:43.785Z,7.01
2023-03-20T04:03:16.051Z,7.02
2023-03-20T04:03:54.982Z,7.01
2023-03-20T04:04:28.358Z,7.02
2023-03-20T04:05:02.814Z,7.00
2023-03-20T04:05:37.677Z,6.98
2023-03-20T04:06:12.811Z,7.00
2023-03-20T04:06:44.251Z,6.98
2023-03-20T04:07:16.096Z,6.98
2023-03-20T04:07:52.564Z,6.99
2023-03-20T04:08:24.167Z,6.97
2023-03-20T04:08:55.647Z,6.97
2023-03-20T04:09:27.235Z,6.98
2023-03-20T04:09:58.626Z,6.97
2023-03-20T04:10:30.069Z,6.96
2023-03-20T04:11:01.875Z,6.96
2023-03-20T04:11:33.616Z,6.98
2023-03-20T04:12:05.486Z,6.97
2023-03-20T04:12:43.294Z,6.98
2023-03-20T04:13:16.338Z,6.98
2023-03-20T04:13:49.604Z,7.00
2023-03-20T04:14:21.440Z,6.98
2023-03-20T04:14:52.893Z,6.98
2023-03-20T04:15:24.383Z,6.97
2023-03-20T04:15:55.808Z,6.99
2023-03-20T04:16:27.382Z,6.96
2023-03-20T04:16:58.906Z,6.97
2023-03-20T04:17:30.521Z,6.93
2023-03-20T04:18:01.939Z,6.93
2023-03-20T04:18:33.328Z,6.94
2023-03-20T04:19:04.709Z,6.91
2023-03-20T04:19:36.214Z,6.92
2023-03-20T04:20:09.543Z,6.93
2023-03-20T04:20:41.496Z,6.91
2023-03-20T04:21:12.994Z,6.90
2023-03-20T04:21:45.597Z,6.90
2023-03-20T04:22:17.010Z,6.89
2023-03-20T04:22:48.638Z,6.90
2023-03-20T04:23:20.000Z,6.93
2023-03-20T04:23:52.026Z,6.89
2023-03-20T04:24:23.552Z,6.87
2023-03-20T04:24:54.998Z,6.93
2023-03-20T04:25:29.318Z,6.92
2023-03-20T04:26:01.696Z,6.94
2023-03-20T04:26:33.309Z,6.92
2023-03-20T04:27:04.908Z,6.92
2023-03-20T04:27:36.311Z,6.93
2023-03-20T04:28:07.763Z,6.95
2023-03-20T04:28:39.269Z,6.91
2023-03-20T04:29:11.116Z,6.93
2023-03-20T04:29:43.414Z,6.97
2023-03-20T04:30:15.322Z,6.96
2023-03-20T04:30:53.295Z,6.97
2023-03-20T04:31:25.058Z,6.97
2023-03-20T04:31:57.067Z,6.96
2023-03-20T04:32:28.661Z,6.97
2023-03-20T04:33:00.161Z,6.94
2023-03-20T04:33:31.721Z,6.93
2023-03-20T04:34:03.056Z,6.91
2023-03-20T04:34:34.529Z,6.90
2023-03-20T04:35:06.526Z,6.93
2023-03-20T04:35:38.233Z,6.93
2023-03-20T04:36:10.482Z,6.92
2023-03-20T04:36:42.028Z,6.92
2023-03-20T04:37:15.400Z,6.91
2023-03-20T04:37:46.874Z,6.90
2023-03-20T04:38:19.765Z,6.92
2023-03-20T04:38:51.668Z,6.91
2023-03-20T04:39:23.176Z,6.90
2023-03-20T04:39:54.697Z,6.89
2023-03-20T04:40:26.846Z,6.92
2023-03-20T04:40:58.316Z,6.90
2023-03-20T04:41:29.800Z,6.90
2023-03-20T04:42:01.450Z,6.89
2023-03-20T04:42:32.912Z,6.87
2023-03-20T04:43:04.767Z,6.88
2023-03-20T04:43:36.154Z,6.87
2023-03-20T04:44:07.752Z,6.90
2023-03-20T04:44:39.222Z,6.90
2023-03-20T04:45:10.758Z,6.92
2023-03-20T04:45:42.453Z,6.88
2023-03-20T04:46:14.020Z,6.90
2023-03-20T04:46:45.498Z,6.92
2023-03-20T04:47:16.920Z,6.91
2023-03-20T04:47:48.583Z,6.89
2023-03-20T04:48:20.124Z,6.89
2023-03-20T04:48:51.580Z,6.88
2023-03-20T04:49:23.335Z,6.86
2023-03-20T04:49:54.660Z,6.88
2023-03-20T04:50:26.286Z,6.88
2023-03-20T04:50:57.774Z,6.84
2023-03-20T04:51:29.175Z,6.87
2023-03-20T04:52:00.619Z,6.89
2023-03-20T04:52:32.240Z,6.90
2023-03-20T04:53:03.823Z,6.86
2023-03-20T04:53:35.560Z,6.87
2023-03-20T04:54:07.242Z,6.84
2023-03-20T04:54:38.826Z,6.87
2023-03-20T04:55:10.559Z,6.86
2023-03-20T04:55:41.928Z,6.85
2023-03-20T04:56:13.766Z,6.86
2023-03-20T04:56:45.272Z,6.87
2023-03-20T04:57:17.041Z,6.87
2023-03-20T04:57:49.075Z,6.88
2023-03-20T04:58:20.557Z,6.87
2023-03-20T04:58:52.051Z,6.86
2023-03-20T04:59:23.859Z,6.86
2023-03-20T04:59:55.265Z,6.86
2023-03-20T05:00:26.651Z,6.87
2023-03-20T05:00:58.127Z,6.86
2023-03-20T05:01:29.740Z,6.87
2023-03-20T05:02:01.233Z,6.89
2023-03-20T05:02:32.928Z,6.86
2023-03-20T05:03:04.605Z,6.86
2023-03-20T05:03:35.994Z,6.85
2023-03-20T05:04:07.593Z,6.86
2023-03-20T05:04:39.146Z,6.85
2023-03-20T05:05:11.056Z,6.81
2023-03-20T05:05:42.529Z,6.79
2023-03-20T05:06:13.930Z,6.83
2023-03-20T05:06:48.993Z,6.80
2023-03-20T05:07:20.586Z,6.83
2023-03-20T05:07:52.352Z,6.83
2023-03-20T05:08:23.754Z,6.81
2023-03-20T05:08:55.132Z,6.79
2023-03-20T05:09:26.777Z,6.80
2023-03-20T05:09:58.572Z,6.83
2023-03-20T05:10:30.040Z,6.81
2023-03-20T05:11:01.544Z,6.82
2023-03-20T05:11:33.220Z,6.78
2023-03-20T05:12:05.080Z,6.78
2023-03-20T05:12:36.769Z,6.79
2023-03-20T05:13:08.140Z,6.83
2023-03-20T05:13:39.503Z,6.83
2023-03-20T05:14:12.080Z,6.84
2023-03-20T05:14:43.555Z,6.84
2023-03-20T05:15:15.141Z,6.81
2023-03-20T05:15:46.586Z,6.83
2023-03-20T05:16:18.062Z,6.84
2023-03-20T05:16:50.048Z,6.86
2023-03-20T05:17:23.039Z,6.83
2023-03-20T05:17:54.887Z,6.82
2023-03-20T05:18:26.237Z,6.82
2023-03-20T05:19:47.495Z,6.85
2023-03-20T05:20:18.981Z,6.86
2023-03-20T05:20:50.501Z,6.83
2023-03-20T05:21:21.878Z,6.86
2023-03-20T05:21:53.585Z,6.85
2023-03-20T05:22:25.298Z,6.85
2023-03-20T05:22:56.766Z,6.85
2023-03-20T05:23:28.290Z,6.87
2023-03-20T05:23:59.703Z,6.85
2023-03-20T05:24:31.338Z,6.85
2023-03-20T05:25:03.507Z,6.86
2023-03-20T05:25:35.273Z,6.81
2023-03-20T05:26:07.466Z,6.83
2023-03-20T05:26:38.882Z,6.83
2023-03-20T05:27:29.175Z,6.79
2023-03-20T05:28:00.958Z,6.84
2023-03-20T05:28:32.348Z,6.81
2023-03-20T05:29:03.894Z,6.84
2023-03-20T05:29:35.875Z,6.81
2023-03-20T05:30:07.754Z,6.82
2023-03-20T05:30:39.204Z,6.81
2023-03-20T05:31:11.085Z,6.82
2023-03-20T05:31:42.575Z,6.80
2023-03-20T05:32:13.943Z,6.83
2023-03-20T05:32:45.814Z,6.82
2023-03-20T05:33:17.298Z,6.82
2023-03-20T05:33:48.707Z,6.79
2023-03-20T05:34:20.734Z,6.82
2023-03-20T05:34:52.267Z,6.80
2023-03-20T05:35:23.751Z,6.81
2023-03-20T05:35:55.412Z,6.82
2023-03-20T05:36:27.053Z,6.80
2023-03-20T05:36:58.436Z,6.83
2023-03-20T05:37:29.858Z,6.78
2023-03-20T05:38:01.445Z,6.80
2023-03-20T05:38:33.034Z,6.80
2023-03-20T05:39:04.556Z,6.78
2023-03-20T05:39:36.134Z,6.78
2023-03-20T05:40:08.435Z,6.79
2023-03-20T05:40:41.767Z,6.77
2023-03-20T05:41:13.250Z,6.77
2023-03-20T05:41:45.903Z,6.76
2023-03-20T05:42:17.423Z,6.76
2023-03-20T05:42:48.837Z,6.74
2023-03-20T05:43:20.488Z,6.75
2023-03-20T05:43:51.881Z,6.73
2023-03-20T05:44:23.338Z,6.73
2023-03-20T05:44:54.764Z,6.75
2023-03-20T05:45:26.234Z,6.76
2023-03-20T05:45:57.708Z,6.73
2023-03-20T05:46:29.378Z,6.76
2023-03-20T05:47:01.029Z,6.74
2023-03-20T05:47:32.693Z,6.75
2023-03-20T05:48:04.370Z,6.74
2023-03-20T05:48:36.797Z,6.74
2023-03-20T05:49:08.645Z,6.74
2023-03-20T05:49:40.249Z,6.72
2023-03-20T05:50:12.566Z,6.74
2023-03-20T05:50:43.989Z,6.73
2023-03-20T05:51:15.469Z,6.73
2023-03-20T05:51:46.976Z,6.73
2023-03-20T05:52:18.537Z,6.75
2023-03-20T05:52:50.534Z,6.76
2023-03-20T05:53:21.982Z,6.73
2023-03-20T05:53:53.456Z,6.75
2023-03-20T05:54:24.935Z,6.74
2023-03-20T05:54:56.494Z,6.76
2023-03-20T05:55:28.156Z,6.76
2023-03-20T05:55:59.649Z,6.74
2023-03-20T05:56:31.528Z,6.76
2023-03-20T05:57:03.309Z,6.76
2023-03-20T05:57:34.787Z,6.77
2023-03-20T05:58:06.236Z,6.76
2023-03-20T05:58:37.781Z,6.76
2023-03-20T05:59:09.208Z,6.75
2023-03-20T05:59:41.090Z,6.76
2023-03-20T06:00:13.028Z,6.75
2023-03-20T06:00:44.542Z,6.75
2023-03-20T06:01:18.163Z,6.74
2023-03-20T06:01:49.656Z,6.76
2023-03-20T06:02:21.085Z,6.74
2023-03-20T06:02:52.588Z,6.76
2023-03-20T06:03:24.154Z,6.74
2023-03-20T06:03:55.609Z,6.74
2023-03-20T06:04:27.268Z,6.77
2023-03-20T06:04:58.758Z,6.76
2023-03-20T06:05:30.270Z,6.77
2023-03-20T06:06:01.611Z,6.78
2023-03-20T06:06:35.303Z,6.77
2023-03-20T06:07:06.729Z,6.78
2023-03-20T06:07:38.115Z,6.77
2023-03-20T06:08:09.551Z,6.77
2023-03-20T06:08:41.222Z,6.77
2023-03-20T06:09:12.681Z,6.76
2023-03-20T06:09:44.136Z,6.77
2023-03-20T06:10:15.709Z,6.76
2023-03-20T06:10:47.142Z,6.77
2023-03-20T06:11:18.605Z,6.76
2023-03-20T06:11:50.306Z,6.77
2023-03-20T06:12:22.323Z,6.78
2023-03-20T06:12:54.259Z,6.78
2023-03-20T06:13:26.059Z,6.78
2023-03-20T06:13:58.519Z,6.79
2023-03-20T06:14:29.946Z,6.78
2023-03-20T06:15:01.462Z,6.79
2023-03-20T06:15:34.091Z,6.79
2023-03-20T06:16:06.275Z,6.79
2023-03-20T06:16:37.754Z,6.77
2023-03-20T06:17:09.444Z,6.77
2023-03-20T06:17:40.890Z,6.74
2023-03-20T06:18:12.429Z,6.75
2023-03-20T06:18:43.824Z,6.76
2023-03-20T06:19:15.477Z,6.77
2023-03-20T06:19:47.650Z,6.78
2023-03-20T06:20:19.196Z,6.80
2023-03-20T06:20:54.606Z,6.78
2023-03-20T06:21:26.195Z,6.79
2023-03-20T06:21:57.614Z,6.79
2023-03-20T06:22:29.016Z,6.79
2023-03-20T06:23:00.424Z,6.80
2023-03-20T06:23:32.098Z,6.81
2023-03-20T06:24:03.615Z,6.82
2023-03-20T06:24:36.048Z,6.81
2023-03-20T06:25:07.921Z,6.80
2023-03-20T06:25:39.396Z,6.80
2023-03-20T06:26:11.978Z,6.80
2023-03-20T06:26:44.001Z,6.82
2023-03-20T06:27:16.113Z,6.82
2023-03-20T06:27:48.165Z,6.82
2023-03-20T06:28:19.737Z,6.82
2023-03-20T06:28:51.386Z,6.79
2023-03-20T06:29:22.762Z,6.81
2023-03-20T06:29:54.242Z,6.80
2023-03-20T06:30:25.825Z,6.80
2023-03-20T06:30:57.437Z,6.77
2023-03-20T06:31:29.054Z,6.79
2023-03-20T06:32:00.638Z,6.79
2023-03-20T06:32:32.683Z,6.77
2023-03-20T06:33:06.562Z,6.78
2023-03-20T06:33:38.224Z,6.78
2023-03-20T06:34:09.818Z,6.79
2023-03-20T06:34:41.315Z,6.81
2023-03-20T06:35:13.427Z,6.82
2023-03-20T06:35:46.620Z,6.79
2023-03-20T06:36:18.323Z,6.77
2023-03-20T06:36:49.831Z,6.78
2023-03-20T06:37:21.957Z,6.77
2023-03-20T06:37:53.288Z,6.80
2023-03-20T06:38:24.641Z,6.79
2023-03-20T06:38:57.119Z,6.81
2023-03-20T06:39:28.778Z,6.80
2023-03-20T06:40:00.557Z,6.80
2023-03-20T06:40:32.043Z,6.77
2023-03-20T06:41:03.719Z,6.80
2023-03-20T06:41:35.303Z,6.81
2023-03-20T06:42:06.998Z,6.82
2023-03-20T06:42:38.484Z,6.81
2023-03-20T06:43:12.367Z,6.83
2023-03-20T06:43:44.208Z,6.85
2023-03-20T06:44:15.789Z,6.85
2023-03-20T06:44:47.406Z,6.82
2023-03-20T06:45:19.484Z,6.82
2023-03-20T06:45:51.233Z,6.85
2023-03-20T06:46:22.797Z,6.84
2023-03-20T06:46:54.349Z,6.82
2023-03-20T06:47:26.083Z,6.85
2023-03-20T06:47:57.515Z,6.83
2023-03-20T06:48:29.125Z,6.83
2023-03-20T06:49:01.324Z,6.84
2023-03-20T06:49:32.667Z,6.82
2023-03-20T06:50:04.536Z,6.80
2023-03-20T06:50:36.364Z,6.79
2023-03-20T06:51:08.130Z,6.82
2023-03-20T06:51:39.606Z,6.84
2023-03-20T06:52:18.386Z,6.84
2023-03-20T06:52:50.548Z,6.83
2023-03-20T06:53:22.386Z,6.85
2023-03-20T06:53:53.775Z,6.85
2023-03-20T06:54:26.393Z,6.84
2023-03-20T06:54:57.927Z,6.82
2023-03-20T06:55:29.740Z,6.85
2023-03-20T06:56:01.349Z,6.83
2023-03-20T06:56:32.789Z,6.82
2023-03-20T06:57:04.253Z,6.83
2023-03-20T06:57:35.726Z,6.86
2023-03-20T06:58:07.227Z,6.85
2023-03-20T06:58:38.970Z,6.84
2023-03-20T06:59:10.546Z,6.81
2023-03-20T06:59:42.147Z,6.82
2023-03-20T07:00:14.412Z,6.83
2023-03-20T07:00:46.612Z,6.85
2023-03-20T07:01:19.800Z,6.82
2023-03-20T07:01:52.692Z,6.84
2023-03-20T07:02:26.050Z,6.86
2023-03-20T07:02:57.537Z,6.83
2023-03-20T07:03:29.145Z,6.85
2023-03-20T07:04:01.124Z,6.82
2023-03-20T07:04:33.787Z,6.83
2023-03-20T07:05:05.693Z,6.83
2023-03-20T07:05:38.612Z,6.82
2023-03-20T07:06:12.216Z,6.82
2023-03-20T07:06:43.848Z,6.83
2023-03-20T07:07:15.473Z,6.83
2023-03-20T07:07:47.349Z,6.84
2023-03-20T07:08:18.826Z,6.84
2023-03-20T07:08:52.785Z,6.82
2023-03-20T07:09:24.415Z,6.85
2023-03-20T07:09:55.783Z,6.84
2023-03-20T07:10:27.833Z,6.85
2023-03-20T07:10:59.741Z,6.83
2023-03-20T07:11:31.710Z,6.84
2023-03-20T07:12:04.837Z,6.85
2023-03-20T07:12:36.326Z,6.87
2023-03-20T07:13:07.772Z,6.86
2023-03-20T07:13:39.211Z,6.84
2023-03-20T07:14:10.748Z,6.83
2023-03-20T07:14:42.787Z,6.87
2023-03-20T07:15:14.271Z,6.83
2023-03-20T07:16:01.273Z,6.85
2023-03-20T07:16:35.822Z,6.87
2023-03-20T07:17:09.050Z,6.84
2023-03-20T07:17:40.506Z,6.84
2023-03-20T07:18:12.107Z,6.84
2023-03-20T07:18:43.536Z,6.83
2023-03-20T07:19:15.192Z,6.83
2023-03-20T07:19:46.796Z,6.83
2023-03-20T07:20:18.537Z,6.83
2023-03-20T07:20:52.628Z,6.86
2023-03-20T07:21:24.427Z,6.85
2023-03-20T07:22:01.884Z,6.89
2023-03-20T07:22:33.363Z,6.88
2023-03-20T07:23:04.865Z,6.87
2023-03-20T07:23:36.425Z,6.90
2023-03-20T07:24:08.326Z,6.89
2023-03-20T07:24:39.735Z,6.89
2023-03-20T07:25:11.294Z,6.88
2023-03-20T07:25:43.387Z,6.87
2023-03-20T07:26:14.929Z,6.88
2023-03-20T07:26:46.384Z,6.91
2023-03-20T07:27:18.285Z,6.91
2023-03-20T07:27:50.854Z,6.89
2023-03-20T07:28:22.321Z,6.89
2023-03-20T07:28:53.689Z,6.90
2023-03-20T07:29:25.116Z,6.93
2023-03-20T07:29:56.566Z,6.93
2023-03-20T07:30:28.326Z,6.89
2023-03-20T07:30:59.834Z,6.92
2023-03-20T07:31:32.154Z,6.89
2023-03-20T07:32:03.659Z,6.90
2023-03-20T07:32:37.630Z,6.92
2023-03-20T07:33:09.459Z,6.94
2023-03-20T07:33:40.859Z,6.91
2023-03-20T07:34:12.877Z,6.92
2023-03-20T07:34:44.542Z,6.96
2023-03-20T07:35:16.388Z,6.96
2023-03-20T07:35:52.746Z,6.93
2023-03-20T07:36:24.289Z,6.96
2023-03-20T07:36:56.396Z,6.93
2023-03-20T07:37:28.081Z,6.93
2023-03-20T07:37:59.444Z,6.95
2023-03-20T07:38:30.811Z,6.96
2023-03-20T07:39:02.312Z,6.93
2023-03-20T07:39:33.840Z,6.98
2023-03-20T07:40:06.054Z,6.99
2023-03-20T07:40:37.920Z,6.95
2023-03-20T07:41:09.420Z,6.93
2023-03-20T07:41:40.854Z,6.94
2023-03-20T07:42:14.060Z,6.97
2023-03-20T07:42:47.580Z,6.97
2023-03-20T07:43:19.066Z,6.93
2023-03-20T07:43:50.604Z,6.96
2023-03-20T07:44:22.120Z,6.96
2023-03-20T07:44:53.551Z,6.94